createdAt,value
2018-02-16T00:00:03.279Z,7.75
2018-02-16T00:02:32.342Z,7.71
2018-02-16T00:05:00.612Z,7.79
2018-02-16T00:07:28.905Z,7.63
2018-02-16T00:09:57.185Z,7.61
2018-02-16T00:12:25.473Z,7.67
2018-02-16T00:14:54.503Z,7.59
2018-02-16T00:17:22.786Z,7.67
2018-02-16T00:19:51.078Z,7.38
2018-02-16T00:22:19.365Z,7.58
2018-02-16T00:24:47.633Z,7.57
2018-02-16T00:27:15.916Z,7.52
2018-02-16T00:29:44.188Z,7.42
2018-02-16T00:32:12.486Z,7.63
2018-02-16T00:34:40.752Z,7.59
2018-02-16T00:37:09.787Z,7.64
2018-02-16T00:39:38.063Z,7.34
2018-02-16T00:42:06.339Z,7.55
2018-02-16T00:44:34.603Z,7.65
2018-02-16T00:47:02.873Z,7.66
2018-02-16T00:49:31.153Z,7.70
2018-02-16T00:51:59.416Z,7.47
2018-02-16T00:54:27.697Z,7.22
2018-02-16T00:56:56.012Z,7.20
2018-02-16T00:59:24.307Z,7.22
2018-02-16T01:01:52.581Z,7.35
2018-02-16T01:04:20.861Z,7.38
2018-02-16T01:06:49.116Z,7.57
2018-02-16T01:09:18.164Z,7.70
2018-02-16T01:11:46.429Z,7.74
2018-02-16T01:14:15.606Z,7.82
2018-02-16T01:16:43.878Z,7.79
2018-02-16T01:19:12.149Z,7.70
2018-02-16T01:21:40.416Z,7.76
2018-02-16T01:24:08.692Z,7.76
2018-02-16T01:26:36.962Z,7.78
2018-02-16T01:29:05.999Z,7.82
2018-02-16T01:31:34.268Z,7.73
2018-02-16T01:34:02.539Z,7.80
2018-02-16T01:36:31.573Z,7.79
2018-02-16T01:38:59.865Z,7.73
2018-02-16T01:41:28.149Z,7.72
2018-02-16T01:43:56.448Z,7.76
2018-02-16T01:46:24.735Z,7.75
2018-02-16T01:48:53.058Z,7.80
2018-02-16T01:51:21.321Z,7.81
2018-02-16T01:53:49.604Z,7.84
2018-02-16T01:56:17.878Z,7.85
2018-02-16T01:58:46.176Z,7.66
2018-02-16T02:01:14.445Z,7.63
2018-02-16T02:03:43.510Z,7.67
2018-02-16T02:06:11.788Z,7.65
2018-02-16T02:08:40.084Z,7.61
2018-02-16T02:11:08.355Z,7.49
2018-02-16T02:13:36.650Z,7.40
2018-02-16T02:16:04.924Z,7.26
2018-02-16T02:18:36.144Z,7.41
2018-02-16T02:21:05.193Z,7.43
2018-02-16T02:23:33.470Z,7.46
2018-02-16T02:26:01.756Z,7.60
2018-02-16T02:28:30.048Z,7.68
2018-02-16T02:30:58.326Z,7.72
2018-02-16T02:33:26.610Z,7.76
2018-02-16T02:35:54.889Z,7.81
2018-02-16T02:38:23.174Z,7.35
2018-02-16T02:40:52.199Z,7.51
2018-02-16T02:43:20.497Z,7.67
2018-02-16T02:45:48.773Z,7.72
2018-02-16T02:48:17.040Z,7.82
2018-02-16T02:50:46.068Z,7.87
2018-02-16T02:53:14.936Z,7.90
2018-02-16T02:55:43.202Z,7.82
2018-02-16T02:58:11.484Z,7.81
2018-02-16T03:00:39.765Z,7.68
2018-02-16T03:03:08.032Z,7.56
2018-02-16T03:05:36.299Z,7.45
2018-02-16T03:08:04.571Z,7.06
2018-02-16T03:10:33.605Z,7.02
2018-02-16T03:13:01.880Z,6.48
2018-02-16T03:15:30.165Z,6.65
2018-02-16T03:17:59.196Z,6.79
2018-02-16T03:20:28.236Z,6.96
2018-02-16T03:22:56.521Z,7.13
2018-02-16T03:25:24.794Z,7.21
2018-02-16T03:27:53.056Z,7.12
2018-02-16T03:30:21.333Z,7.02
2018-02-16T03:32:49.610Z,7.13
2018-02-16T03:35:18.636Z,7.17
2018-02-16T03:37:46.908Z,6.79
2018-02-16T03:40:15.956Z,6.38
2018-02-16T03:42:44.233Z,6.23
2018-02-16T03:45:12.500Z,6.19
2018-02-16T03:47:40.784Z,6.46
2018-02-16T03:50:09.828Z,6.55
2018-02-16T03:52:38.110Z,6.81
2018-02-16T03:55:06.392Z,6.40
2018-02-16T03:57:34.657Z,6.28
2018-02-16T04:00:03.693Z,5.85
2018-02-16T04:02:31.964Z,5.91
2018-02-16T04:05:00.273Z,5.96
2018-02-16T04:07:28.537Z,5.82
2018-02-16T04:09:56.815Z,5.04
2018-02-16T04:12:25.848Z,5.42
2018-02-16T04:14:54.133Z,5.56
2018-02-16T04:17:22.440Z,5.25
2018-02-16T04:19:50.722Z,5.39
2018-02-16T04:22:19.766Z,5.63
2018-02-16T04:24:48.053Z,5.58
2018-02-16T04:27:16.319Z,5.83
2018-02-16T04:29:44.592Z,5.78
2018-02-16T04:32:13.424Z,6.24
2018-02-16T04:34:41.700Z,5.89
2018-02-16T04:37:10.003Z,5.88
2018-02-16T04:39:38.282Z,5.42
2018-02-16T04:42:06.552Z,5.63
2018-02-16T04:44:34.828Z,5.90
2018-02-16T04:47:03.098Z,5.50
2018-02-16T04:49:32.141Z,5.53
2018-02-16T04:52:00.428Z,5.67
2018-02-16T04:54:28.723Z,5.88
2018-02-16T04:56:56.988Z,5.84
2018-02-16T04:59:25.264Z,5.76
2018-02-16T05:01:53.541Z,5.75
2018-02-16T05:04:21.812Z,5.69
2018-02-16T05:06:50.854Z,5.75
2018-02-16T05:09:19.900Z,5.83
2018-02-16T05:11:48.200Z,5.72
2018-02-16T05:14:16.463Z,5.70
2018-02-16T05:16:44.724Z,5.78
2018-02-16T05:19:13.028Z,5.86
2018-02-16T05:21:41.306Z,5.65
2018-02-16T05:24:09.583Z,5.19
2018-02-16T05:26:37.851Z,5.10
2018-02-16T05:29:06.901Z,5.09
2018-02-16T05:31:38.458Z,5.20
2018-02-16T05:34:06.741Z,5.34
2018-02-16T05:36:35.004Z,5.16
2018-02-16T05:39:04.058Z,4.89
2018-02-16T05:41:32.319Z,5.01
2018-02-16T05:44:00.586Z,4.80
2018-02-16T05:46:29.629Z,5.09
2018-02-16T05:48:57.914Z,4.99
2018-02-16T05:51:26.189Z,4.96
2018-02-16T05:53:54.465Z,4.77
2018-02-16T05:56:22.740Z,4.81
2018-02-16T05:58:51.805Z,4.81
2018-02-16T06:01:20.080Z,4.86
2018-02-16T06:03:48.380Z,4.97
2018-02-16T06:06:16.647Z,5.06
2018-02-16T06:08:44.927Z,5.20
2018-02-16T06:11:13.225Z,5.12
2018-02-16T06:13:41.503Z,4.89
2018-02-16T06:16:09.792Z,4.87
2018-02-16T06:18:38.059Z,4.78
2018-02-16T06:21:07.107Z,4.60
2018-02-16T06:23:35.384Z,4.42
2018-02-16T06:26:03.668Z,4.29
2018-02-16T06:28:31.953Z,4.62
2018-02-16T06:31:00.309Z,4.80
2018-02-16T06:33:28.539Z,4.68
2018-02-16T06:35:56.832Z,4.44
2018-02-16T06:38:25.891Z,4.31
2018-02-16T06:40:54.185Z,5.03
2018-02-16T06:43:23.223Z,5.05
2018-02-16T06:45:51.501Z,4.73
2018-02-16T06:48:19.790Z,4.88
2018-02-16T06:50:48.080Z,5.12
2018-02-16T06:53:16.370Z,5.19
2018-02-16T06:55:44.655Z,5.17
2018-02-16T06:58:12.932Z,5.07
2018-02-16T07:00:41.992Z,5.62
2018-02-16T07:03:10.264Z,5.54
2018-02-16T07:05:38.554Z,5.67
2018-02-16T07:08:06.833Z,5.46
2018-02-16T07:10:35.825Z,5.20
2018-02-16T07:13:04.138Z,5.29
2018-02-16T07:15:32.416Z,5.20
2018-02-16T07:18:00.693Z,5.21
2018-02-16T07:20:29.424Z,5.44
2018-02-16T07:22:57.696Z,5.03
2018-02-16T07:25:25.980Z,5.22
2018-02-16T07:27:54.267Z,5.77
2018-02-16T07:30:22.541Z,5.82
2018-02-16T07:32:50.817Z,5.75
2018-02-16T07:35:19.873Z,6.04
2018-02-16T07:37:48.142Z,5.87
2018-02-16T07:40:16.456Z,6.18
2018-02-16T07:42:44.727Z,6.15
2018-02-16T07:45:13.009Z,6.27
2018-02-16T07:47:41.288Z,6.05
2018-02-16T07:50:39.603Z,6.22
2018-02-16T07:53:07.879Z,6.03
2018-02-16T07:55:36.165Z,5.91
2018-02-16T07:58:04.431Z,5.91
2018-02-16T08:00:33.476Z,5.73
2018-02-16T08:03:01.776Z,5.65
2018-02-16T08:05:30.944Z,5.87
2018-02-16T08:07:59.981Z,5.58
2018-02-16T08:10:28.258Z,5.71
2018-02-16T08:12:56.523Z,5.74
2018-02-16T08:15:25.564Z,5.73
2018-02-16T08:17:53.826Z,5.67
2018-02-16T08:20:22.104Z,5.38
2018-02-16T08:22:51.142Z,5.38
2018-02-16T08:25:19.420Z,5.48
2018-02-16T08:27:47.921Z,5.65
2018-02-16T08:30:16.187Z,5.48
2018-02-16T08:32:44.456Z,5.42
2018-02-16T08:35:13.495Z,5.49
2018-02-16T08:37:42.585Z,5.42
2018-02-16T08:40:10.864Z,5.31
2018-02-16T08:42:39.896Z,5.69
2018-02-16T08:45:08.178Z,5.68
2018-02-16T08:47:36.441Z,5.60
2018-02-16T08:50:05.489Z,5.70
2018-02-16T08:52:33.757Z,5.69
2018-02-16T08:55:02.041Z,5.33
2018-02-16T08:57:30.321Z,5.18
2018-02-16T08:59:58.647Z,5.02
2018-02-16T09:02:26.907Z,5.30
2018-02-16T09:04:55.195Z,5.55
2018-02-16T09:07:24.216Z,5.66
2018-02-16T09:09:52.494Z,5.75
2018-02-16T09:12:21.421Z,5.81
2018-02-16T09:14:49.692Z,5.63
2018-02-16T09:17:17.952Z,5.98
2018-02-16T09:19:46.245Z,5.88
2018-02-16T09:22:15.272Z,5.97
2018-02-16T09:24:43.536Z,5.72
2018-02-16T09:27:11.857Z,5.85
2018-02-16T09:29:40.127Z,5.85
2018-02-16T09:32:09.156Z,6.04
2018-02-16T09:34:37.415Z,6.07
2018-02-16T09:37:06.454Z,5.94
2018-02-16T09:39:43.103Z,5.66
2018-02-16T09:42:12.153Z,5.43
2018-02-16T09:44:43.356Z,5.62
2018-02-16T09:47:11.640Z,5.78
2018-02-16T09:49:39.909Z,5.51
2018-02-16T09:52:08.180Z,5.57
2018-02-16T09:54:36.461Z,5.31
2018-02-16T09:57:04.744Z,5.15
2018-02-16T09:59:33.004Z,5.27
2018-02-16T10:02:01.283Z,5.53
2018-02-16T10:04:30.310Z,5.54
2018-02-16T10:06:58.610Z,5.22
2018-02-16T10:09:26.877Z,4.95
2018-02-16T10:11:55.997Z,5.36
2018-02-16T10:14:24.313Z,5.24
2018-02-16T10:16:53.306Z,5.53
2018-02-16T10:19:21.587Z,5.02
2018-02-16T10:21:49.868Z,4.89
2018-02-16T10:24:18.127Z,4.90
2018-02-16T10:26:46.396Z,5.49
2018-02-16T10:29:14.662Z,5.56
2018-02-16T10:31:42.929Z,5.49
2018-02-16T10:34:11.193Z,5.74
2018-02-16T10:36:40.238Z,5.81
2018-02-16T10:39:08.505Z,5.99
2018-02-16T10:41:36.785Z,6.19
2018-02-16T10:44:05.816Z,6.02
2018-02-16T10:46:34.096Z,5.69
2018-02-16T10:49:02.380Z,5.64
2018-02-16T10:51:30.656Z,5.85
2018-02-16T10:53:59.675Z,5.58
2018-02-16T10:56:27.950Z,5.18
2018-02-16T10:58:56.215Z,5.22
2018-02-16T11:01:24.508Z,4.96
2018-02-16T11:03:58.180Z,4.94
2018-02-16T11:06:32.085Z,4.83
2018-02-16T11:09:05.912Z,5.12
2018-02-16T11:11:34.190Z,5.25
2018-02-16T11:14:02.460Z,4.91
2018-02-16T11:16:30.736Z,4.98
2018-02-16T11:19:00.461Z,5.15
2018-02-16T11:21:29.504Z,5.62
2018-02-16T11:23:57.778Z,5.98
2018-02-16T11:26:26.687Z,5.90
2018-02-16T11:28:54.967Z,6.42
2018-02-16T11:31:23.300Z,6.70
2018-02-16T11:33:51.566Z,6.32
2018-02-16T11:36:19.840Z,6.51
2018-02-16T11:38:48.105Z,6.43
2018-02-16T11:41:17.148Z,6.23
2018-02-16T11:43:45.419Z,6.42
2018-02-16T11:46:13.719Z,6.91
2018-02-16T11:48:41.981Z,6.78
2018-02-16T11:51:11.029Z,6.41
2018-02-16T11:53:39.292Z,6.23
2018-02-16T11:56:07.583Z,6.47
2018-02-16T11:58:35.847Z,6.63
2018-02-16T12:01:04.892Z,6.55
2018-02-16T12:03:33.156Z,6.14
2018-02-16T12:06:01.432Z,5.88
2018-02-16T12:08:30.478Z,6.47
2018-02-16T12:10:58.750Z,6.83
2018-02-16T12:13:27.009Z,7.03
2018-02-16T12:15:55.300Z,7.39
2018-02-16T12:18:23.554Z,7.24
2018-02-16T12:20:51.828Z,7.59
2018-02-16T12:23:20.104Z,8.18
2018-02-16T12:25:48.365Z,8.23
2018-02-16T12:28:17.391Z,8.54
2018-02-16T12:30:45.666Z,8.32
2018-02-16T12:33:13.932Z,8.46
2018-02-16T12:35:42.205Z,7.92
2018-02-16T12:38:10.467Z,6.58
2018-02-16T12:40:38.731Z,6.71
2018-02-16T12:43:07.009Z,6.93
2018-02-16T12:45:35.271Z,7.44
2018-02-16T12:48:03.576Z,7.38
2018-02-16T12:50:31.803Z,6.64
2018-02-16T12:53:00.086Z,5.87
2018-02-16T12:55:28.356Z,5.47
2018-02-16T12:57:56.629Z,5.75
2018-02-16T13:00:25.663Z,6.06
2018-02-16T13:02:54.764Z,5.68
2018-02-16T13:05:23.029Z,5.84
2018-02-16T13:07:52.063Z,5.67
2018-02-16T13:10:20.324Z,6.25
2018-02-16T13:12:49.366Z,6.69
2018-02-16T13:15:17.615Z,7.09
2018-02-16T13:17:46.647Z,7.62
2018-02-16T13:20:14.903Z,7.27
2018-02-16T13:22:43.945Z,7.47
2018-02-16T13:25:12.208Z,7.36
2018-02-16T13:27:41.236Z,7.13
2018-02-16T13:30:09.496Z,7.20
2018-02-16T13:32:38.536Z,7.32
2018-02-16T13:35:06.791Z,7.86
2018-02-16T13:37:35.829Z,7.85
2018-02-16T13:40:04.600Z,7.81
2018-02-16T13:42:33.636Z,7.62
2018-02-16T13:45:01.910Z,7.40
2018-02-16T13:47:30.181Z,7.27
2018-02-16T13:49:59.237Z,7.16
2018-02-16T13:52:27.479Z,7.48
2018-02-16T13:54:56.502Z,7.60
2018-02-16T13:57:24.759Z,7.39
2018-02-16T13:59:53.028Z,7.10
2018-02-16T14:02:22.283Z,6.14
2018-02-16T14:04:50.559Z,6.30
2018-02-16T14:07:19.596Z,6.60
2018-02-16T14:09:47.857Z,6.69
2018-02-16T14:12:16.901Z,6.79
2018-02-16T14:14:45.170Z,6.88
2018-02-16T14:17:13.437Z,6.54
2018-02-16T14:19:42.470Z,6.53
2018-02-16T14:22:10.753Z,6.39
2018-02-16T14:24:39.034Z,6.86
2018-02-16T14:27:07.317Z,7.17
2018-02-16T14:29:35.584Z,7.36
2018-02-16T14:32:03.867Z,7.53
2018-02-16T14:34:32.137Z,8.01
2018-02-16T14:37:00.408Z,8.32
2018-02-16T14:39:28.685Z,8.81
2018-02-16T14:42:06.845Z,8.80
2018-02-16T14:44:35.113Z,8.97
2018-02-16T14:47:03.393Z,8.67
2018-02-16T14:49:31.662Z,8.69
2018-02-16T14:51:59.928Z,8.46
2018-02-16T14:54:28.951Z,7.86
2018-02-16T14:56:57.224Z,8.18
2018-02-16T14:59:26.244Z,8.41
2018-02-16T15:01:54.532Z,8.13
2018-02-16T15:04:23.035Z,8.44
2018-02-16T15:06:51.316Z,8.61
2018-02-16T15:09:19.777Z,8.08
2018-02-16T15:11:48.037Z,7.13
2018-02-16T15:14:16.308Z,7.39
2018-02-16T15:16:44.572Z,7.39
2018-02-16T15:19:13.609Z,7.37
2018-02-16T15:21:41.874Z,7.30
2018-02-16T15:24:10.172Z,7.28
2018-02-16T15:26:38.426Z,7.03
2018-02-16T15:29:07.460Z,6.43
2018-02-16T15:31:35.733Z,6.75
2018-02-16T15:34:04.019Z,7.01
2018-02-16T15:36:32.279Z,7.17
2018-02-16T15:39:00.549Z,7.36
2018-02-16T15:41:28.895Z,6.73
2018-02-16T15:43:57.155Z,6.99
2018-02-16T15:46:25.421Z,7.34
2018-02-16T15:48:53.689Z,7.03
2018-02-16T15:51:21.954Z,7.05
2018-02-16T15:53:50.225Z,7.21
2018-02-16T15:56:19.257Z,7.26
2018-02-16T15:58:47.525Z,7.43
2018-02-16T16:01:15.788Z,7.54
2018-02-16T16:03:44.824Z,6.78
2018-02-16T16:06:13.150Z,6.95
2018-02-16T16:08:42.136Z,7.13
2018-02-16T16:11:10.392Z,6.93
2018-02-16T16:13:39.449Z,6.70
2018-02-16T16:16:07.714Z,6.84
2018-02-16T16:18:35.993Z,6.62
2018-02-16T16:21:04.272Z,6.70
2018-02-16T16:23:32.553Z,6.66
2018-02-16T16:26:01.585Z,6.71
2018-02-16T16:28:31.812Z,7.03
2018-02-16T16:31:00.086Z,7.18
2018-02-16T16:33:29.137Z,7.33
2018-02-16T16:35:57.405Z,7.48
2018-02-16T16:38:25.685Z,7.54
2018-02-16T16:40:53.966Z,7.49
2018-02-16T16:43:22.237Z,7.50
2018-02-16T16:45:51.271Z,7.56
2018-02-16T16:48:19.534Z,7.36
2018-02-16T16:50:48.557Z,7.36
2018-02-16T16:53:16.819Z,7.22
2018-02-16T16:55:45.851Z,7.15
2018-02-16T16:58:14.129Z,6.86
2018-02-16T17:00:42.392Z,6.92
2018-02-16T17:03:10.660Z,6.95
2018-02-16T17:05:38.934Z,6.95
2018-02-16T17:08:07.208Z,6.83
2018-02-16T17:10:35.460Z,6.79
2018-02-16T17:13:04.555Z,6.76
2018-02-16T17:15:32.785Z,6.78
2018-02-16T17:18:01.072Z,6.75
2018-02-16T17:20:29.327Z,6.82
2018-02-16T17:22:58.364Z,6.77
2018-02-16T17:25:27.355Z,6.56
2018-02-16T17:27:56.397Z,6.18
2018-02-16T17:30:24.660Z,6.15
2018-02-16T17:32:52.954Z,6.37
2018-02-16T17:35:21.215Z,6.51
2018-02-16T17:37:50.254Z,6.58
2018-02-16T17:40:18.536Z,6.68
2018-02-16T17:42:47.589Z,6.71
2018-02-16T17:45:16.402Z,6.75
2018-02-16T17:47:44.667Z,6.77
2018-02-16T17:50:22.853Z,6.81
2018-02-16T17:52:51.135Z,6.77
2018-02-16T17:55:19.409Z,6.88
2018-02-16T17:57:48.449Z,6.89
2018-02-16T18:00:16.718Z,6.89
2018-02-16T18:02:44.993Z,6.99
2018-02-16T18:05:14.024Z,7.05
2018-02-16T18:07:42.303Z,7.11
2018-02-16T18:10:10.569Z,7.13
2018-02-16T18:12:39.605Z,7.14
2018-02-16T18:15:07.892Z,7.19
2018-02-16T18:17:36.152Z,7.22
2018-02-16T18:20:05.220Z,7.24
2018-02-16T18:22:33.489Z,7.29
2018-02-16T18:25:01.778Z,7.27
2018-02-16T18:27:30.057Z,7.22
2018-02-16T18:29:58.323Z,7.29
2018-02-16T18:32:26.613Z,7.32
2018-02-16T18:34:54.878Z,7.31
2018-02-16T18:37:23.137Z,7.30
2018-02-16T18:39:51.413Z,7.32
2018-02-16T18:42:19.675Z,7.35
2018-02-16T18:44:47.961Z,7.29
2018-02-16T18:47:16.233Z,7.23
2018-02-16T18:49:45.283Z,7.15
2018-02-16T18:52:13.540Z,7.22
2018-02-16T18:54:41.808Z,7.26
2018-02-16T18:57:10.837Z,7.24
2018-02-16T18:59:39.867Z,7.20
2018-02-16T19:02:08.143Z,7.18
2018-02-16T19:04:36.428Z,7.21
2018-02-16T19:07:05.541Z,7.20
2018-02-16T19:09:33.821Z,7.15
2018-02-16T19:12:02.102Z,7.11
2018-02-16T19:14:31.151Z,7.06
2018-02-16T19:16:59.462Z,7.03
2018-02-16T19:19:27.695Z,6.93
2018-02-16T19:21:55.969Z,6.99
2018-02-16T19:24:25.137Z,6.89
2018-02-16T19:26:53.545Z,6.89
2018-02-16T19:29:22.700Z,6.93
2018-02-16T19:31:51.129Z,6.80
2018-02-16T19:34:19.902Z,6.75
2018-02-16T19:36:48.265Z,6.78
2018-02-16T19:39:17.785Z,6.80
2018-02-16T19:41:46.505Z,6.73
2018-02-16T19:44:14.857Z,6.77
2018-02-16T19:46:43.682Z,6.73
2018-02-16T19:49:13.305Z,6.64
2018-02-16T19:51:42.412Z,6.62
2018-02-16T19:54:10.702Z,6.59
2018-02-16T19:56:38.981Z,6.57
2018-02-16T19:59:08.026Z,6.52
2018-02-16T20:01:36.287Z,6.38
2018-02-16T20:04:04.589Z,6.31
2018-02-16T20:06:32.848Z,5.96
2018-02-16T20:09:01.897Z,5.87
2018-02-16T20:11:31.079Z,5.76
2018-02-16T20:13:59.654Z,5.86
2018-02-16T20:16:27.977Z,5.91
2018-02-16T20:18:56.253Z,5.95
2018-02-16T20:21:24.816Z,5.73
2018-02-16T20:23:54.056Z,5.76
2018-02-16T20:26:22.332Z,5.81
2018-02-16T20:28:50.617Z,5.80
2018-02-16T20:31:19.861Z,5.67
2018-02-16T20:33:48.177Z,5.43
2018-02-16T20:36:16.461Z,5.43
2018-02-16T20:38:44.752Z,5.48
2018-02-16T20:41:13.322Z,5.48
2018-02-16T20:43:41.660Z,5.20
2018-02-16T20:46:09.940Z,4.98
2018-02-16T20:48:38.364Z,4.93
2018-02-16T20:51:06.662Z,4.85
2018-02-16T20:53:35.014Z,4.75
2018-02-16T20:56:04.082Z,4.61
2018-02-16T20:58:32.352Z,4.53
2018-02-16T21:01:00.638Z,4.45
2018-02-16T21:03:28.988Z,4.39
2018-02-16T21:05:57.278Z,4.27
2018-02-16T21:08:25.600Z,4.14
2018-02-16T21:10:53.879Z,4.10
2018-02-16T21:13:22.908Z,4.01
2018-02-16T21:15:51.189Z,3.92
2018-02-16T21:18:19.466Z,3.82
2018-02-16T21:20:48.508Z,3.76
2018-02-16T21:23:17.535Z,3.71
2018-02-16T21:25:45.815Z,3.67
2018-02-16T21:28:14.079Z,3.52
2018-02-16T21:30:42.395Z,3.56
2018-02-16T21:33:10.664Z,3.55
2018-02-16T21:35:38.934Z,3.58
2018-02-16T21:38:07.201Z,3.63
2018-02-16T21:40:36.836Z,3.75
2018-02-16T21:43:05.108Z,3.82
2018-02-16T21:45:34.152Z,3.83
2018-02-16T21:48:02.430Z,3.79
2018-02-16T21:50:30.695Z,3.79
2018-02-16T21:52:59.737Z,3.71
2018-02-16T21:55:28.007Z,3.65
2018-02-16T21:57:56.277Z,3.58
2018-02-16T22:00:26.228Z,3.63
2018-02-16T22:02:54.501Z,3.54
2018-02-16T22:05:23.544Z,3.49
2018-02-16T22:07:51.812Z,3.39
2018-02-16T22:10:20.080Z,3.35
2018-02-16T22:12:49.105Z,3.35
2018-02-16T22:15:17.376Z,3.15
2018-02-16T22:17:46.413Z,3.00
2018-02-16T22:20:14.682Z,2.96
2018-02-16T22:22:42.951Z,2.78
2018-02-16T22:25:12.036Z,2.80
2018-02-16T22:27:40.255Z,2.73
2018-02-16T22:30:09.291Z,2.65
2018-02-16T22:32:37.555Z,2.46
2018-02-16T22:35:05.836Z,2.33
2018-02-16T22:37:34.864Z,2.22
2018-02-16T22:40:03.153Z,2.21
2018-02-16T22:42:31.415Z,2.07
2018-02-16T22:45:00.461Z,2.01
2018-02-16T22:47:28.727Z,1.93
2018-02-16T22:49:56.992Z,1.79
2018-02-16T22:52:27.958Z,1.68
2018-02-16T22:54:56.241Z,1.46
2018-02-16T22:57:25.276Z,1.44
2018-02-16T22:59:53.557Z,1.41
2018-02-16T23:02:21.824Z,1.06
2018-02-16T23:04:50.864Z,1.16
2018-02-16T23:07:19.144Z,0.99
2018-02-16T23:09:48.225Z,1.14
2018-02-16T23:12:17.257Z,0.79
2018-02-16T23:14:45.550Z,1.04
2018-02-16T23:17:13.803Z,0.97
2018-02-16T23:19:42.833Z,1.02
2018-02-16T23:22:11.095Z,1.14
2018-02-16T23:24:40.140Z,1.19
2018-02-16T23:27:08.401Z,1.25
2018-02-16T23:29:37.441Z,1.31
2018-02-16T23:32:05.712Z,1.37
2018-02-16T23:34:33.987Z,1.44
2018-02-16T23:37:03.017Z,1.47
2018-02-16T23:39:31.301Z,1.49
2018-02-16T23:41:59.568Z,1.64
2018-02-16T23:44:28.546Z,1.74
2018-02-16T23:46:56.829Z,1.86
2018-02-16T23:49:25.105Z,1.91
2018-02-16T23:51:54.146Z,1.88
2018-02-16T23:54:22.406Z,1.89
2018-02-16T23:56:50.692Z,1.77
2018-02-16T23:59:19.715Z,1.71
